createdAt,value
2019-03-29T00:01:10.840Z,11.50
2019-03-29T00:03:44.232Z,11.40
2019-03-29T00:06:17.461Z,11.40
2019-03-29T00:08:49.007Z,11.50
2019-03-29T00:11:20.518Z,11.40
2019-03-29T00:13:52.109Z,11.40
2019-03-29T00:16:23.222Z,11.40
2019-03-29T00:18:54.769Z,11.30
2019-03-29T00:21:26.309Z,11.30
2019-03-29T00:24:06.691Z,11.10
2019-03-29T00:26:30.880Z,11.10
2019-03-29T00:29:03.104Z,11.10
2019-03-29T00:31:34.716Z,11.10
2019-03-29T00:34:05.911Z,11.20
2019-03-29T00:36:37.459Z,11.20
2019-03-29T00:39:08.837Z,11.20
2019-03-29T00:41:40.366Z,11.10
2019-03-29T00:44:12.007Z,11.10
2019-03-29T00:46:43.226Z,11.00
2019-03-29T00:49:15.644Z,10.90
2019-03-29T00:51:51.059Z,10.80
2019-03-29T00:54:24.723Z,10.80
2019-03-29T00:56:55.936Z,10.70
2019-03-29T00:59:27.033Z,10.70
2019-03-29T01:01:58.579Z,10.60
2019-03-29T01:04:30.159Z,10.60
2019-03-29T01:07:01.926Z,10.50
2019-03-29T01:09:33.050Z,10.50
2019-03-29T01:12:04.339Z,10.60
2019-03-29T01:14:36.263Z,10.50
2019-03-29T01:17:07.342Z,10.50
2019-03-29T01:19:39.075Z,10.40
2019-03-29T01:22:10.722Z,10.40
2019-03-29T01:24:42.181Z,10.40
2019-03-29T01:27:13.540Z,10.40
2019-03-29T01:29:44.891Z,10.40
2019-03-29T01:32:16.375Z,10.40
2019-03-29T01:34:48.333Z,10.50
2019-03-29T01:37:20.182Z,10.70
2019-03-29T01:39:51.527Z,10.80
2019-03-29T01:42:22.945Z,10.80
2019-03-29T01:44:54.219Z,10.80
2019-03-29T01:47:25.338Z,10.80
2019-03-29T01:49:56.966Z,10.70
2019-03-29T01:52:31.324Z,10.80
2019-03-29T01:55:01.699Z,10.80
2019-03-29T01:57:33.210Z,10.80
2019-03-29T02:00:05.359Z,10.80
2019-03-29T02:02:36.541Z,10.70
2019-03-29T02:05:09.486Z,10.70
2019-03-29T02:07:40.798Z,10.80
2019-03-29T02:10:12.695Z,10.80
2019-03-29T02:12:43.840Z,10.90
2019-03-29T02:15:15.083Z,10.90
2019-03-29T02:17:47.982Z,10.90
2019-03-29T02:20:19.186Z,11.00
2019-03-29T02:22:50.414Z,11.00
2019-03-29T02:25:22.307Z,10.90
2019-03-29T02:27:53.461Z,10.90
2019-03-29T02:30:24.695Z,10.90
2019-03-29T02:32:56.101Z,11.00
2019-03-29T02:35:27.904Z,10.90
2019-03-29T02:37:58.930Z,10.80
2019-03-29T02:40:30.667Z,10.80
2019-03-29T02:43:01.855Z,10.80
2019-03-29T02:45:33.697Z,10.80
2019-03-29T02:48:05.031Z,10.70
2019-03-29T02:50:36.850Z,10.70
2019-03-29T02:53:12.627Z,10.60
2019-03-29T02:55:44.199Z,10.60
2019-03-29T02:58:15.704Z,10.60
2019-03-29T03:00:47.973Z,10.70
2019-03-29T03:03:19.658Z,10.70
2019-03-29T03:05:53.493Z,10.60
2019-03-29T03:08:24.827Z,10.60
2019-03-29T03:10:56.310Z,10.50
2019-03-29T03:13:27.572Z,10.60
2019-03-29T03:16:07.190Z,10.60
2019-03-29T03:18:42.730Z,10.30
2019-03-29T03:21:14.399Z,10.70
2019-03-29T03:23:45.953Z,10.70
2019-03-29T03:26:17.231Z,10.70
2019-03-29T03:28:48.417Z,10.80
2019-03-29T03:31:19.756Z,10.90
2019-03-29T03:33:51.102Z,11.10
2019-03-29T03:36:22.939Z,11.00
2019-03-29T03:38:54.647Z,11.00
2019-03-29T03:41:26.442Z,10.90
2019-03-29T03:43:58.957Z,10.90
2019-03-29T03:46:30.128Z,10.80
2019-03-29T03:49:01.691Z,10.80
2019-03-29T03:51:33.482Z,10.80
2019-03-29T03:54:05.035Z,10.80
2019-03-29T03:56:37.160Z,10.70
2019-03-29T03:59:13.221Z,10.60
2019-03-29T04:01:46.846Z,10.60
2019-03-29T04:04:18.013Z,10.50
2019-03-29T04:06:50.904Z,10.50
2019-03-29T04:09:22.350Z,10.50
2019-03-29T04:11:53.793Z,10.50
2019-03-29T04:14:26.310Z,10.50
2019-03-29T04:16:58.521Z,10.50
2019-03-29T04:19:29.561Z,10.50
2019-03-29T04:22:00.738Z,10.40
2019-03-29T04:24:32.286Z,10.30
2019-03-29T04:27:03.810Z,10.30
2019-03-29T04:29:35.345Z,10.20
2019-03-29T04:32:06.544Z,10.20
2019-03-29T04:34:37.688Z,10.10
2019-03-29T04:37:08.803Z,10.00
2019-03-29T04:39:41.810Z,9.90
2019-03-29T04:42:12.950Z,9.80
2019-03-29T04:44:46.374Z,9.70
2019-03-29T04:47:18.476Z,9.60
2019-03-29T04:49:50.562Z,9.60
2019-03-29T04:52:21.762Z,9.50
2019-03-29T04:54:52.915Z,9.60
2019-03-29T04:57:24.363Z,9.60
2019-03-29T04:59:57.960Z,9.70
2019-03-29T05:02:30.459Z,9.70
2019-03-29T05:05:01.876Z,9.60
2019-03-29T05:07:36.859Z,9.60
2019-03-29T05:10:19.914Z,9.60
2019-03-29T05:12:41.253Z,9.70
2019-03-29T05:15:12.732Z,9.80
2019-03-29T05:17:43.897Z,9.80
2019-03-29T05:20:15.320Z,9.90
2019-03-29T05:22:46.553Z,9.90
2019-03-29T05:25:19.450Z,9.90
2019-03-29T05:27:50.576Z,10.00
2019-03-29T05:30:21.819Z,10.10
2019-03-29T05:32:53.712Z,10.10
2019-03-29T05:35:24.970Z,10.20
2019-03-29T05:37:56.579Z,10.20
2019-03-29T05:40:34.841Z,10.20
2019-03-29T05:43:01.003Z,10.10
2019-03-29T05:45:32.163Z,10.10
2019-03-29T05:48:05.697Z,10.10
2019-03-29T05:50:42.708Z,10.10
2019-03-29T05:53:14.327Z,10.10
2019-03-29T05:55:48.305Z,10.10
2019-03-29T05:58:19.555Z,10.00
2019-03-29T06:00:51.132Z,10.00
2019-03-29T06:03:29.347Z,10.00
2019-03-29T06:06:13.514Z,10.10
2019-03-29T06:08:45.907Z,10.10
2019-03-29T06:11:17.053Z,10.30
2019-03-29T06:13:48.794Z,10.40
2019-03-29T06:16:21.194Z,10.10
2019-03-29T06:18:52.815Z,10.60
2019-03-29T06:21:24.719Z,10.70
2019-03-29T06:23:55.886Z,10.80
2019-03-29T06:26:27.895Z,10.80
2019-03-29T06:28:59.449Z,10.90
2019-03-29T06:31:31.137Z,10.90
2019-03-29T06:34:02.244Z,11.00
2019-03-29T06:36:33.892Z,10.80
2019-03-29T06:39:10.340Z,11.00
2019-03-29T06:41:41.508Z,11.10
2019-03-29T06:44:13.528Z,11.10
2019-03-29T06:46:46.878Z,11.20
2019-03-29T06:49:18.002Z,11.30
2019-03-29T06:51:52.307Z,11.40
2019-03-29T06:54:32.944Z,11.40
2019-03-29T06:57:17.885Z,11.50
2019-03-29T06:59:51.130Z,11.50
2019-03-29T07:02:22.799Z,11.50
2019-03-29T07:04:53.934Z,11.60
2019-03-29T07:07:25.060Z,11.60
2019-03-29T07:10:04.493Z,11.70
2019-03-29T07:12:56.248Z,11.80
2019-03-29T07:15:26.761Z,11.90
2019-03-29T07:17:57.718Z,11.90
2019-03-29T07:20:29.657Z,11.90
2019-03-29T07:23:02.097Z,11.90
2019-03-29T07:25:34.863Z,12.00
2019-03-29T07:28:06.207Z,12.10
2019-03-29T07:30:39.856Z,12.10
2019-03-29T07:33:10.978Z,12.20
2019-03-29T07:35:42.159Z,12.10
2019-03-29T07:38:13.304Z,12.20
2019-03-29T07:40:44.943Z,12.30
2019-03-29T07:43:16.132Z,12.40
2019-03-29T07:45:50.364Z,12.40
2019-03-29T07:48:21.840Z,12.50
2019-03-29T07:50:55.768Z,12.60
2019-03-29T07:53:27.126Z,12.70
2019-03-29T07:56:03.379Z,12.70
2019-03-29T07:58:35.678Z,12.80
2019-03-29T08:01:08.356Z,13.00
2019-03-29T08:03:39.623Z,13.10
2019-03-29T08:06:30.853Z,13.20
2019-03-29T08:09:22.223Z,13.40
2019-03-29T08:11:48.728Z,13.60
2019-03-29T08:14:21.531Z,13.80
2019-03-29T08:16:56.076Z,14.00
2019-03-29T08:19:27.406Z,14.20
2019-03-29T08:22:01.239Z,14.30
2019-03-29T08:24:33.402Z,14.20
2019-03-29T08:27:04.787Z,14.10
2019-03-29T08:29:37.069Z,14.10
2019-03-29T08:32:10.400Z,14.10
2019-03-29T08:34:44.027Z,14.00
2019-03-29T08:37:15.184Z,13.90
2019-03-29T08:39:49.622Z,13.90
2019-03-29T08:42:21.537Z,13.80
2019-03-29T08:44:53.250Z,13.80
2019-03-29T08:47:27.730Z,13.90
2019-03-29T08:50:04.001Z,14.00
2019-03-29T08:52:35.290Z,14.20
2019-03-29T08:55:09.159Z,14.30
2019-03-29T08:57:40.715Z,14.40
2019-03-29T09:00:15.780Z,14.50
2019-03-29T09:02:46.651Z,14.50
2019-03-29T09:05:26.252Z,14.60
2019-03-29T09:07:59.563Z,14.50
2019-03-29T09:10:32.949Z,14.40
2019-03-29T09:13:04.832Z,14.50
2019-03-29T09:15:39.438Z,14.40
2019-03-29T09:18:10.728Z,14.40
2019-03-29T09:20:51.090Z,14.40
2019-03-29T09:23:23.338Z,14.40
2019-03-29T09:25:54.504Z,14.60
2019-03-29T09:28:42.926Z,14.70
2019-03-29T09:31:26.765Z,14.70
2019-03-29T09:34:00.183Z,14.70
2019-03-29T09:36:31.723Z,14.90
2019-03-29T09:39:04.916Z,14.90
2019-03-29T09:41:37.979Z,15.00
2019-03-29T09:44:09.234Z,15.00
2019-03-29T09:46:41.140Z,15.00
2019-03-29T09:49:13.461Z,15.00
2019-03-29T09:51:57.975Z,15.10
2019-03-29T09:54:30.058Z,15.30
2019-03-29T09:57:01.602Z,15.30
2019-03-29T09:59:32.885Z,15.30
2019-03-29T10:02:03.935Z,15.60
2019-03-29T10:04:37.303Z,15.70
2019-03-29T10:07:10.163Z,15.70
2019-03-29T10:09:42.380Z,16.00
2019-03-29T10:12:13.832Z,16.30
2019-03-29T10:14:45.748Z,16.60
2019-03-29T10:17:17.506Z,16.80
2019-03-29T10:19:50.007Z,16.80
2019-03-29T10:22:21.844Z,17.00
2019-03-29T10:24:53.032Z,16.80
2019-03-29T10:27:24.184Z,16.50
2019-03-29T10:29:55.441Z,16.20
2019-03-29T10:32:29.405Z,16.00
2019-03-29T10:35:03.509Z,16.00
2019-03-29T10:37:35.260Z,16.20
2019-03-29T10:40:17.063Z,16.70
2019-03-29T10:42:57.604Z,17.30
2019-03-29T10:45:23.543Z,17.90
2019-03-29T10:47:55.690Z,18.30
2019-03-29T10:50:27.336Z,18.60
2019-03-29T10:52:58.506Z,18.60
2019-03-29T10:55:29.525Z,18.20
2019-03-29T10:58:00.771Z,18.20
2019-03-29T11:00:38.494Z,18.60
2019-03-29T11:03:13.154Z,18.90
2019-03-29T11:05:47.054Z,19.70
2019-03-29T11:08:20.454Z,20.10
2019-03-29T11:10:53.271Z,20.50
2019-03-29T11:13:27.957Z,20.90
2019-03-29T11:15:59.989Z,21.00
2019-03-29T11:18:31.755Z,21.30
2019-03-29T11:21:04.251Z,21.30
2019-03-29T11:23:37.496Z,21.30
2019-03-29T11:26:12.681Z,21.30
2019-03-29T11:28:44.841Z,21.40
2019-03-29T11:31:17.868Z,21.60
2019-03-29T11:33:49.347Z,21.70
2019-03-29T11:36:20.838Z,22.00
2019-03-29T11:38:52.063Z,22.40
2019-03-29T11:41:23.890Z,23.00
2019-03-29T11:43:55.366Z,23.20
2019-03-29T11:46:27.225Z,23.30
2019-03-29T11:48:58.363Z,22.60
2019-03-29T11:51:29.752Z,22.00
2019-03-29T11:54:02.056Z,21.90
2019-03-29T11:56:33.399Z,22.10
2019-03-29T11:59:13.732Z,23.00
2019-03-29T12:01:48.230Z,23.20
2019-03-29T12:04:19.713Z,23.70
2019-03-29T12:06:51.342Z,24.40
2019-03-29T12:09:22.577Z,25.20
2019-03-29T12:11:54.504Z,25.70
2019-03-29T12:14:25.914Z,25.90
2019-03-29T12:16:57.174Z,26.10
2019-03-29T12:19:30.428Z,25.70
2019-03-29T12:22:02.691Z,25.80
2019-03-29T12:24:33.922Z,25.80
2019-03-29T12:27:05.571Z,26.00
2019-03-29T12:29:37.312Z,26.40
2019-03-29T12:32:12.356Z,26.80
2019-03-29T12:34:46.260Z,27.00
2019-03-29T12:37:18.855Z,27.40
2019-03-29T12:39:50.507Z,27.70
2019-03-29T12:42:22.077Z,26.80
2019-03-29T12:44:53.315Z,27.10
2019-03-29T12:47:25.012Z,27.90
2019-03-29T12:50:01.473Z,27.70
2019-03-29T12:52:32.903Z,27.00
2019-03-29T12:55:04.302Z,27.00
2019-03-29T12:57:38.697Z,27.50
2019-03-29T13:00:09.251Z,27.90
2019-03-29T13:02:41.003Z,28.10
2019-03-29T13:05:12.172Z,28.40
2019-03-29T13:07:43.482Z,28.70
2019-03-29T13:10:20.015Z,28.90
2019-03-29T13:13:04.811Z,29.20
2019-03-29T13:15:36.671Z,29.20
2019-03-29T13:18:08.247Z,29.10
2019-03-29T13:20:39.880Z,29.30
2019-03-29T13:23:18.759Z,28.90
2019-03-29T13:26:09.577Z,27.50
2019-03-29T13:28:43.619Z,25.90
2019-03-29T13:31:15.969Z,24.10
2019-03-29T13:33:47.342Z,22.80
2019-03-29T13:36:19.005Z,21.70
2019-03-29T13:38:50.816Z,21.20
2019-03-29T13:41:22.819Z,20.80
2019-03-29T13:43:54.624Z,20.30
2019-03-29T13:46:26.599Z,19.90
2019-03-29T13:48:59.228Z,19.80
2019-03-29T13:51:33.122Z,19.80
2019-03-29T13:54:04.681Z,19.70
2019-03-29T13:56:35.897Z,19.60
2019-03-29T13:59:11.648Z,19.60
2019-03-29T14:01:44.040Z,19.60
2019-03-29T14:04:16.360Z,19.40
2019-03-29T14:06:47.376Z,19.20
2019-03-29T14:09:18.539Z,19.10
2019-03-29T14:11:49.684Z,18.80
2019-03-29T14:14:20.827Z,18.70
2019-03-29T14:16:52.409Z,18.60
2019-03-29T14:19:25.784Z,18.50
2019-03-29T14:21:56.474Z,18.60
2019-03-29T14:24:28.119Z,18.70
2019-03-29T14:26:59.806Z,18.70
2019-03-29T14:29:31.324Z,18.70
2019-03-29T14:32:02.501Z,18.60
2019-03-29T14:34:33.777Z,18.60
2019-03-29T14:37:05.274Z,18.60
2019-03-29T14:39:36.499Z,18.40
2019-03-29T14:42:07.603Z,18.30
2019-03-29T14:44:51.813Z,18.30
2019-03-29T14:47:12.380Z,18.30
2019-03-29T14:49:43.877Z,18.20
2019-03-29T14:52:15.281Z,18.20
2019-03-29T14:54:47.281Z,18.10
2019-03-29T14:57:24.439Z,18.10
2019-03-29T14:59:56.486Z,18.00
2019-03-29T15:02:29.101Z,18.00
2019-03-29T15:05:00.265Z,18.00
2019-03-29T15:07:31.636Z,18.10
2019-03-29T15:10:09.518Z,18.20
2019-03-29T15:12:42.002Z,18.20
2019-03-29T15:15:18.705Z,18.10
2019-03-29T15:17:49.829Z,18.00
2019-03-29T15:20:20.875Z,18.00
2019-03-29T15:22:53.597Z,17.90
2019-03-29T15:25:26.538Z,17.80
2019-03-29T15:27:58.094Z,17.60
2019-03-29T15:30:30.896Z,17.60
2019-03-29T15:33:04.926Z,17.50
2019-03-29T15:35:40.032Z,17.50
2019-03-29T15:38:11.380Z,17.40
2019-03-29T15:40:46.754Z,17.30
2019-03-29T15:43:18.251Z,17.30
2019-03-29T15:45:52.488Z,17.30
2019-03-29T15:48:29.043Z,17.30
2019-03-29T15:51:00.420Z,17.40
2019-03-29T15:53:34.070Z,17.30
2019-03-29T15:56:08.095Z,17.20
2019-03-29T15:58:42.890Z,17.20
2019-03-29T16:01:16.693Z,17.10
2019-03-29T16:03:49.239Z,17.10
2019-03-29T16:06:26.311Z,17.00
2019-03-29T16:08:57.388Z,17.10
2019-03-29T16:11:33.730Z,17.00
2019-03-29T16:14:05.969Z,17.00
2019-03-29T16:16:38.573Z,17.00
2019-03-29T16:19:09.678Z,16.90
2019-03-29T16:21:40.871Z,16.80
2019-03-29T16:24:15.900Z,16.80
2019-03-29T16:26:47.967Z,16.70
2019-03-29T16:29:20.852Z,16.60
2019-03-29T16:31:54.656Z,16.30
2019-03-29T16:34:27.625Z,16.60
2019-03-29T16:37:20.515Z,16.50
2019-03-29T16:39:59.188Z,16.50
2019-03-29T16:42:31.648Z,16.40
2019-03-29T16:45:03.488Z,16.30
2019-03-29T16:47:37.761Z,16.20
2019-03-29T16:50:10.778Z,16.20
2019-03-29T16:52:42.653Z,16.20
2019-03-29T16:55:14.309Z,16.20
2019-03-29T16:57:46.086Z,16.20
2019-03-29T17:00:21.044Z,16.20
2019-03-29T17:02:52.748Z,16.20
2019-03-29T17:05:24.104Z,16.10
2019-03-29T17:07:55.613Z,16.10
2019-03-29T17:10:28.458Z,16.00
2019-03-29T17:13:03.459Z,15.90
2019-03-29T17:15:35.516Z,15.90
2019-03-29T17:18:06.944Z,15.90
2019-03-29T17:20:38.687Z,15.80
2019-03-29T17:23:13.413Z,15.80
2019-03-29T17:25:45.166Z,15.70
2019-03-29T17:28:17.208Z,15.70
2019-03-29T17:30:52.813Z,15.60
2019-03-29T17:33:24.002Z,15.60
2019-03-29T17:35:57.383Z,15.50
2019-03-29T17:38:28.690Z,15.40
2019-03-29T17:41:00.203Z,15.40
2019-03-29T17:43:31.476Z,15.30
2019-03-29T17:46:16.064Z,15.30
2019-03-29T17:48:47.158Z,15.30
2019-03-29T17:51:21.067Z,15.10
2019-03-29T17:53:53.536Z,15.20
2019-03-29T17:56:24.646Z,15.20
2019-03-29T17:58:56.286Z,15.20
2019-03-29T18:01:28.151Z,15.10
2019-03-29T18:03:59.706Z,15.10
2019-03-29T18:06:30.966Z,15.00
2019-03-29T18:09:02.284Z,15.00
2019-03-29T18:11:37.209Z,14.90
2019-03-29T18:14:10.023Z,14.80
2019-03-29T18:16:41.519Z,14.80
2019-03-29T18:19:13.266Z,14.60
2019-03-29T18:21:45.078Z,14.50
2019-03-29T18:24:23.031Z,14.40
2019-03-29T18:27:02.724Z,14.30
2019-03-29T18:29:34.971Z,14.30
2019-03-29T18:32:07.078Z,14.20
2019-03-29T18:34:41.614Z,14.20
2019-03-29T18:37:13.691Z,14.20
2019-03-29T18:39:45.238Z,14.10
2019-03-29T18:42:16.420Z,14.00
2019-03-29T18:44:48.706Z,14.00
2019-03-29T18:47:20.652Z,13.90
2019-03-29T18:49:52.168Z,13.90
2019-03-29T18:52:24.352Z,13.90
2019-03-29T18:54:56.120Z,13.90
2019-03-29T18:57:28.527Z,13.80
2019-03-29T19:00:00.372Z,13.80
2019-03-29T19:02:31.818Z,13.70
2019-03-29T19:05:07.702Z,13.60
2019-03-29T19:07:40.681Z,13.60
2019-03-29T19:10:12.708Z,13.50
2019-03-29T19:12:59.496Z,13.50
2019-03-29T19:15:31.238Z,13.40
2019-03-29T19:18:03.100Z,13.40
2019-03-29T19:20:34.632Z,13.30
2019-03-29T19:23:06.227Z,13.30
2019-03-29T19:25:41.584Z,13.30
2019-03-29T19:28:12.743Z,13.30
2019-03-29T19:30:44.725Z,13.30
2019-03-29T19:33:16.292Z,13.20
2019-03-29T19:35:47.638Z,13.20
2019-03-29T19:38:18.748Z,13.20
2019-03-29T19:40:49.955Z,13.20
2019-03-29T19:43:21.731Z,13.20
2019-03-29T19:45:52.884Z,13.10
2019-03-29T19:48:25.684Z,13.00
2019-03-29T19:51:09.490Z,13.20
2019-03-29T19:53:42.243Z,12.90
2019-03-29T19:56:20.150Z,12.90
2019-03-29T19:58:57.716Z,12.80
2019-03-29T20:01:37.310Z,12.80
2019-03-29T20:04:10.050Z,12.70
2019-03-29T20:06:42.003Z,12.70
2019-03-29T20:09:13.595Z,12.60
2019-03-29T20:11:45.211Z,12.60
2019-03-29T20:14:16.753Z,12.60
2019-03-29T20:16:48.444Z,12.60
2019-03-29T20:19:20.347Z,12.60
2019-03-29T20:21:53.333Z,12.60
2019-03-29T20:24:24.378Z,12.90
2019-03-29T20:26:55.867Z,12.60
2019-03-29T20:29:27.375Z,12.50
2019-03-29T20:31:59.255Z,12.50
2019-03-29T20:34:31.147Z,12.50
2019-03-29T20:37:02.367Z,12.50
2019-03-29T20:39:35.072Z,12.50
2019-03-29T20:42:06.718Z,12.50
2019-03-29T20:44:39.687Z,12.50
2019-03-29T20:47:11.043Z,12.50
2019-03-29T20:49:42.427Z,12.40
2019-03-29T20:52:15.058Z,12.20
2019-03-29T20:54:46.512Z,12.20
2019-03-29T20:57:17.757Z,12.10
2019-03-29T20:59:49.654Z,11.90
2019-03-29T21:02:21.538Z,11.90
2019-03-29T21:04:53.487Z,11.90
2019-03-29T21:07:26.263Z,11.90
2019-03-29T21:09:57.280Z,11.80
2019-03-29T21:12:30.810Z,11.70
2019-03-29T21:15:04.306Z,11.80
2019-03-29T21:17:35.641Z,11.80
2019-03-29T21:20:08.636Z,11.80
2019-03-29T21:22:40.730Z,11.70
2019-03-29T21:25:12.115Z,11.70
2019-03-29T21:27:43.990Z,11.70
2019-03-29T21:30:16.170Z,11.70
2019-03-29T21:32:47.349Z,11.60
2019-03-29T21:35:18.977Z,11.60
2019-03-29T21:37:50.870Z,11.50
2019-03-29T21:40:22.027Z,11.40
2019-03-29T21:42:53.791Z,11.40
2019-03-29T21:45:28.963Z,11.20
2019-03-29T21:48:08.453Z,11.20
2019-03-29T21:50:32.369Z,11.10
2019-03-29T21:53:03.856Z,11.10
2019-03-29T21:55:35.264Z,11.10
2019-03-29T21:58:07.233Z,11.20
2019-03-29T22:00:38.580Z,11.10
2019-03-29T22:03:09.803Z,11.20
2019-03-29T22:05:45.398Z,11.20
2019-03-29T22:08:18.106Z,11.20
2019-03-29T22:10:49.886Z,11.10
2019-03-29T22:13:21.008Z,11.00
2019-03-29T22:15:52.970Z,11.00
2019-03-29T22:18:37.389Z,10.90
2019-03-29T22:20:59.245Z,10.80
2019-03-29T22:23:31.141Z,10.80
2019-03-29T22:26:02.599Z,10.80
2019-03-29T22:28:41.563Z,10.80
2019-03-29T22:31:13.554Z,10.90
2019-03-29T22:33:46.948Z,11.00
2019-03-29T22:36:18.298Z,11.10
2019-03-29T22:38:50.311Z,11.00
2019-03-29T22:41:24.899Z,10.90
2019-03-29T22:43:58.923Z,10.70
2019-03-29T22:46:33.022Z,10.70
2019-03-29T22:49:05.322Z,10.80
2019-03-29T22:51:36.459Z,10.70
2019-03-29T22:54:07.727Z,10.70
2019-03-29T22:56:39.132Z,10.70
2019-03-29T22:59:10.410Z,10.60
2019-03-29T23:01:48.030Z,10.60
2019-03-29T23:04:19.183Z,10.70
2019-03-29T23:06:50.471Z,10.70
2019-03-29T23:09:22.746Z,10.70
2019-03-29T23:11:53.904Z,10.70
2019-03-29T23:14:26.959Z,10.60
2019-03-29T23:16:58.035Z,10.70
2019-03-29T23:19:29.470Z,10.70
2019-03-29T23:22:01.223Z,10.60
2019-03-29T23:24:32.427Z,10.70
2019-03-29T23:27:03.552Z,10.60
2019-03-29T23:29:34.832Z,10.60
2019-03-29T23:32:06.128Z,10.50
2019-03-29T23:34:37.608Z,10.40
2019-03-29T23:37:12.572Z,10.30
2019-03-29T23:39:45.781Z,10.40
2019-03-29T23:42:19.877Z,10.30
2019-03-29T23:44:51.466Z,10.40
2019-03-29T23:47:22.875Z,10.50
2019-03-29T23:49:55.237Z,10.50
2019-03-29T23:52:26.483Z,10.60
2019-03-29T23:54:58.223Z,10.60
2019-03-29T23:57:29.424Z,10.50
